Time;durP1;ratioP1;P1;durP2;ratioP2;P2;SDS_P1;SDS_P2;PMS_P1;PMS_P2;Temp;Humidity;BMP_temperature;BMP_pressure;BME280_temperature;BME280_humidity;BME280_pressure;Samples;Min_cycle;Max_cycle;Signal;HPM_P1;HPM_P2
2022/08/11 00:00:46;;;;;;;3.50;3.20;;;;;;;17.01;93.07;102339.91;2054390;28;23921;-82
2022/08/11 00:01:52;;;;;;;4.63;3.50;;;;;;;17.00;92.31;102345.38;2047831;28;26370;-82
2022/08/11 00:03:02;;;;;;;6.28;3.25;;;;;;;17.00;93.36;102343.56;2032725;28;33248;-82
2022/08/11 00:04:05;;;;;;;;;;;;;;;17.01;93.14;102347.16;2042233;28;30993;-82
2022/08/11 00:05:18;;;;;;;5.10;3.42;;;;;;;17.00;93.62;102342.69;2048205;28;31159;-82
2022/08/11 00:06:38;;;;;;;10.80;3.63;;;;;;;17.00;92.89;102338.16;2047531;28;34027;-82
2022/08/11 00:07:53;;;;;;;4.75;3.45;;;;;;;16.97;92.94;102344.50;2043634;28;20110;-82
2022/08/11 00:08:57;;;;;;;5.80;3.80;;;;;;;16.96;93.14;102341.88;2047334;28;33782;-82
2022/08/11 00:10:02;;;;;;;4.90;3.55;;;;;;;16.96;93.67;102339.16;2047977;28;23665;-81
2022/08/11 00:11:09;;;;;;;5.28;3.72;;;;;;;16.95;93.85;102343.66;2041500;28;23364;-82
2022/08/11 00:12:15;;;;;;;3.97;3.55;;;;;;;16.92;93.58;102349.19;2051079;28;35354;-82
2022/08/11 00:13:19;;;;;;;7.65;3.78;;;;;;;16.95;94.02;102349.09;2049285;28;20940;-82
2022/08/11 00:14:28;;;;;;;5.47;3.80;;;;;;;16.91;93.67;102346.53;2049874;28;22383;-82
2022/08/11 00:15:44;;;;;;;4.20;3.67;;;;;;;16.89;93.87;102348.38;2054461;28;36211;-82
2022/08/11 00:17:05;;;;;;;4.10;3.70;;;;;;;16.88;94.10;102347.47;2049155;28;27437;-82
2022/08/11 00:18:07;;;;;;;6.40;4.03;;;;;;;16.88;94.06;102343.88;2052678;28;28625;-82
2022/08/11 00:19:10;;;;;;;6.93;4.07;;;;;;;16.89;94.24;102349.25;2046222;28;28785;-80
2022/08/11 00:20:14;;;;;;;5.43;4.22;;;;;;;16.84;93.93;102340.38;2050895;28;39796;-82
2022/08/11 00:21:20;;;;;;;6.70;4.38;;;;;;;16.85;94.79;102346.66;2052074;28;22339;-82
2022/08/11 00:22:41;;;;;;;4.15;3.58;;;;;;;16.83;94.33;102344.00;2052926;28;27452;-82
2022/08/11 00:23:56;;;;;;;5.32;3.88;;;;;;;16.78;93.93;102346.81;2053167;28;35276;-82
2022/08/11 00:25:00;;;;;;;6.35;4.03;;;;;;;16.80;95.12;102341.38;2039513;29;20041;-82
2022/08/11 00:26:06;;;;;;;6.60;3.78;;;;;;;16.76;94.30;102342.34;2046504;28;26980;-82
2022/08/11 00:27:11;;;;;;;8.25;3.90;;;;;;;16.72;94.29;102335.25;2053501;28;20044;-83
2022/08/11 00:28:33;;;;;;;4.70;4.15;;;;;;;16.75;94.94;102341.47;2054447;28;28971;-83
2022/08/11 00:29:35;;;;;;;7.10;3.30;;;;;;;16.68;94.39;102344.38;2048362;28;29729;-82
2022/08/11 00:30:39;;;;;;;5.18;3.85;;;;;;;16.64;93.96;102338.16;2047738;28;20047;-81
2022/08/11 00:31:54;;;;;;;6.28;3.42;;;;;;;16.58;94.29;102338.31;2047244;28;34527;-81
2022/08/11 00:32:58;;;;;;;6.22;4.13;;;;;;;16.58;94.88;102341.00;2047384;28;20844;-81
2022/08/11 00:34:03;;;;;;;4.25;3.60;;;;;;;16.53;94.78;102341.16;2041063;28;28514;-81
2022/08/11 00:35:11;;;;;;;5.38;3.75;;;;;;;16.49;95.03;102343.97;2048093;28;31145;-81
2022/08/11 00:36:50;;;;;;;3.53;3.10;;;;;;;16.40;94.82;102342.38;2039736;29;20084;-83
2022/08/11 00:37:57;;;;;;;3.78;3.30;;;;;;;16.35;94.98;102341.63;2048887;28;20921;-83
2022/08/11 00:39:05;;;;;;;5.82;3.88;;;;;;;16.34;95.36;102343.41;2047211;28;25246;-82
2022/08/11 00:40:22;;;;;;;5.75;3.63;;;;;;;16.29;95.45;102341.75;2047262;28;32857;-83
2022/08/11 00:42:36;;;;;;;4.05;3.17;;;;;;;16.25;96.09;102346.34;2046824;28;37423;-83
2022/08/11 00:44:03;;;;;;;4.90;4.00;;;;;;;16.24;96.31;102344.59;2038836;29;33097;-83
2022/08/11 00:45:21;;;;;;;6.55;3.92;;;;;;;16.26;97.35;102341.81;2038696;29;23581;-82
2022/08/11 00:46:45;;;;;;;4.50;3.90;;;;;;;16.23;96.63;102343.66;2047722;28;40200;-83
2022/08/11 00:48:10;;;;;;;4.82;4.03;;;;;;;16.25;97.35;102343.63;2048686;28;20048;-82
2022/08/11 00:49:33;;;;;;;9.00;4.28;;;;;;;16.25;96.74;102345.47;2047246;28;31454;-82
2022/08/11 00:51:06;;;;;;;3.95;3.38;;;;;;;16.23;97.10;102342.78;2035004;29;24989;-83
2022/08/11 00:52:20;;;;;;;6.55;4.22;;;;;;;16.22;96.96;102346.41;2049936;28;28113;-82
2022/08/11 00:53:58;;;;;;;5.30;4.05;;;;;;;16.17;96.97;102342.97;2051110;28;33407;-82
2022/08/11 00:55:32;;;;;;;6.68;3.78;;;;;;;16.18;96.50;102344.72;2047549;28;29947;-82
2022/08/11 00:57:28;;;;;;;6.65;4.05;;;;;;;16.15;96.72;102339.38;2047677;28;25353;-82
2022/08/11 00:59:11;;;;;;;7.82;4.07;;;;;;;16.11;96.84;102349.38;2046689;28;32017;-82
2022/08/11 01:00:48;;;;;;;5.20;3.92;;;;;;;16.08;96.77;102353.94;2047198;28;40603;-82
2022/08/11 01:02:17;;;;;;;6.15;4.55;;;;;;;16.08;97.82;102353.94;2046314;28;27668;-83
2022/08/11 01:04:06;;;;;;;6.63;4.10;;;;;;;16.07;97.80;102352.19;2053496;28;20987;-82
2022/08/11 01:05:29;;;;;;;6.10;3.97;;;;;;;16.01;97.30;102354.09;2047631;28;27727;-83
2022/08/11 01:06:51;;;;;;;4.40;4.05;;;;;;;15.98;97.12;102358.69;2048018;28;20170;-82
2022/08/11 01:08:42;;;;;;;8.27;3.97;;;;;;;16.00;98.00;102362.25;2047519;28;29407;-82
2022/08/11 01:10:02;;;;;;;4.95;4.10;;;;;;;15.97;97.94;102363.22;2048165;28;25456;-82
2022/08/11 01:11:24;;;;;;;6.55;4.28;;;;;;;15.95;98.00;102364.16;2047132;28;31154;-82
2022/08/11 01:13:03;;;;;;;5.78;4.53;;;;;;;15.97;98.91;102362.31;2047469;28;30488;-83
2022/08/11 01:14:24;;;;;;;4.13;3.75;;;;;;;15.92;98.77;102365.13;2047865;28;28699;-83
2022/08/11 01:15:47;;;;;;;4.72;4.00;;;;;;;15.87;98.26;102358.94;2047688;28;24151;-83
2022/08/11 01:17:08;;;;;;;4.25;3.53;;;;;;;15.84;98.18;102359.00;2044748;28;29602;-83
2022/08/11 01:18:34;;;;;;;5.25;3.60;;;;;;;15.80;97.80;102358.19;2050490;28;26715;-82
2022/08/11 01:20:10;;;;;;;4.32;3.55;;;;;;;15.79;98.23;102355.50;2051466;28;29513;-82
2022/08/11 01:22:25;;;;;;;5.35;4.00;;;;;;;15.79;98.52;102358.22;2048852;28;20048;-83
2022/08/11 01:23:55;;;;;;;4.53;3.40;;;;;;;15.76;98.43;102347.50;2049327;28;20996;-82
2022/08/11 01:25:41;;;;;;;5.03;3.60;;;;;;;15.71;98.93;102343.97;2048357;28;24763;-82
2022/08/11 01:27:31;;;;;;;4.22;3.53;;;;;;;15.68;98.69;102353.00;2037808;28;25128;-82
2022/08/11 01:29:13;;;;;;;4.25;3.90;;;;;;;15.63;99.01;102347.72;2040039;29;26090;-82
2022/08/11 01:30:53;;;;;;;5.45;4.53;;;;;;;15.65;98.98;102350.41;2039804;29;33513;-81
2022/08/11 01:32:20;;;;;;;3.27;2.97;;;;;;;15.59;99.11;102348.69;2040202;28;28429;-82
2022/08/11 01:34:07;;;;;;;5.37;3.90;;;;;;;15.57;99.52;102342.44;2040846;28;21129;-82
2022/08/11 01:35:26;;;;;;;6.25;3.95;;;;;;;15.52;99.13;102355.13;2040385;29;29521;-82
2022/08/11 01:37:17;;;;;;;4.57;3.95;;;;;;;15.51;99.28;102347.97;2039951;29;27811;-82
2022/08/11 01:38:40;;;;;;;6.72;4.10;;;;;;;15.43;99.09;102349.94;2039904;28;34869;-82
2022/08/11 01:40:12;;;;;;;10.57;3.65;;;;;;;15.40;98.78;102348.19;2040620;28;27366;-83
2022/08/11 01:45:25;;;;;;;5.97;4.15;;;;;;;15.33;100.00;102349.25;2042773;28;20083;-84
2022/08/11 01:46:37;;;;;;;4.00;3.20;;;;;;;15.26;99.53;102345.78;2048483;28;20964;-83
2022/08/11 01:48:01;;;;;;;4.10;3.78;;;;;;;15.26;99.42;102351.16;2047198;28;40861;-83
2022/08/11 01:49:29;;;;;;;4.97;3.70;;;;;;;15.22;99.28;102352.16;2043948;28;22602;-83
2022/08/11 01:51:21;;;;;;;3.97;3.58;;;;;;;15.17;99.59;102351.34;2056190;28;20054;-83
2022/08/11 01:52:40;;;;;;;4.30;3.88;;;;;;;15.17;99.45;102354.06;2038822;29;30799;-83
2022/08/11 01:54:28;;;;;;;5.30;4.15;;;;;;;15.20;100.00;102353.09;2044749;28;32804;-84
2022/08/11 01:55:56;;;;;;;4.95;3.35;;;;;;;15.17;100.00;102355.88;2047977;28;25586;-83
2022/08/11 01:57:37;;;;;;;4.57;3.67;;;;;;;15.16;100.00;102356.78;2047123;28;32400;-84
2022/08/11 01:58:52;;;;;;;3.83;3.40;;;;;;;15.15;99.96;102353.19;2048280;28;24567;-84
2022/08/11 02:00:02;;;;;;;5.55;4.10;;;;;;;15.17;100.00;102354.06;2047937;28;26935;-84
2022/08/11 02:01:24;;;;;;;5.25;4.03;;;;;;;15.15;100.00;102350.50;2047402;28;20945;-84
2022/08/11 02:02:57;;;;;;;4.13;3.45;;;;;;;15.13;99.73;102351.44;2042287;28;37634;-83
2022/08/11 02:04:37;;;;;;;7.38;3.97;;;;;;;15.09;100.00;102356.00;2048037;28;21415;-84
2022/08/11 02:06:53;;;;;;;6.57;3.72;;;;;;;15.10;100.00;102347.00;2047434;28;32647;-83
2022/08/11 02:08:33;;;;;;;4.80;3.35;;;;;;;15.05;99.75;102347.06;2047428;28;30191;-82
2022/08/11 02:11:39;;;;;;;4.53;3.83;;;;;;;15.03;100.00;102342.63;2054842;28;32901;-84
2022/08/11 02:12:59;;;;;;;4.90;3.53;;;;;;;15.03;99.63;102350.72;2049571;28;38069;-84
2022/08/11 02:14:25;;;;;;;4.30;3.57;;;;;;;14.99;99.75;102344.50;2047553;28;32999;-83
2022/08/11 02:16:04;;;;;;;4.63;3.92;;;;;;;14.95;99.91;102348.19;2048163;28;20382;-84
2022/08/11 02:17:31;;;;;;;4.65;3.65;;;;;;;14.96;100.00;102341.84;2046762;28;34245;-83
2022/08/11 02:24:22;;;;;;;9.55;4.97;;;;;;;15.02;100.00;102339.06;2046314;28;26583;-84
2022/08/11 02:25:43;;;;;;;6.07;4.15;;;;;;;15.05;100.00;102335.41;2046518;28;26930;-84
2022/08/11 02:26:56;;;;;;;4.90;4.40;;;;;;;15.08;100.00;102346.16;2046404;28;30317;-84
2022/08/11 02:28:18;;;;;;;7.90;5.00;;;;;;;15.16;100.00;102341.47;2046741;28;27647;-83
2022/08/11 02:29:49;;;;;;;7.55;5.40;;;;;;;15.28;100.00;102343.03;2043454;28;25811;-84
2022/08/11 02:33:25;;;;;;;5.10;4.57;;;;;;;15.33;99.74;102340.28;2055848;28;20870;-84
2022/08/11 02:34:38;;;;;;;8.45;4.68;;;;;;;15.33;99.35;102340.28;2047357;28;26067;-84
2022/08/11 02:36:09;;;;;;;7.93;5.40;;;;;;;15.37;99.31;102339.28;2047447;28;23853;-84
2022/08/11 02:37:32;;;;;;;5.50;4.68;;;;;;;15.36;99.24;102334.78;2047401;28;23550;-84
2022/08/11 02:38:54;;;;;;;6.18;5.15;;;;;;;15.40;99.19;102342.81;2047670;28;26258;-85
2022/08/11 02:40:26;;;;;;;8.50;5.00;;;;;;;15.40;98.87;102345.50;2048122;28;20809;-84
2022/08/11 02:43:23;;;;;;;5.28;4.35;;;;;;;15.39;98.89;102332.03;2047898;28;26452;-84
2022/08/11 02:45:09;;;;;;;5.78;4.80;;;;;;;15.39;98.14;102348.22;2047689;28;33757;-84
2022/08/11 02:46:30;;;;;;;8.50;4.47;;;;;;;15.39;98.06;102343.72;2045656;28;39119;-83
2022/08/11 02:49:53;;;;;;;5.82;4.65;;;;;;;15.37;97.71;102339.28;2047871;28;19919;-84
2022/08/11 02:51:38;;;;;;;12.20;5.57;;;;;;;15.40;97.82;102342.81;2046402;28;29952;-84
2022/08/11 02:53:05;;;;;;;6.93;5.40;;;;;;;15.43;97.40;102339.13;2047571;28;31465;-84
2022/08/11 02:54:28;;;;;;;8.43;4.32;;;;;;;15.41;97.25;102333.75;2046642;28;34741;-84
2022/08/11 02:55:56;;;;;;;9.00;5.72;;;;;;;15.43;97.26;102333.75;2045009;28;21016;-84
2022/08/11 02:57:14;;;;;;;9.10;4.80;;;;;;;15.48;97.61;102342.63;2052165;28;36703;-84
2022/08/11 02:58:38;;;;;;;6.22;4.68;;;;;;;15.46;97.32;102336.38;2049904;28;25967;-83
2022/08/11 02:59:57;;;;;;;7.50;5.30;;;;;;;15.46;97.10;102331.88;2046236;28;28642;-84
2022/08/11 03:01:15;;;;;;;8.70;4.85;;;;;;;15.50;96.74;102342.59;2047119;28;26859;-83
2022/08/11 03:02:31;;;;;;;10.20;5.93;;;;;;;15.52;97.21;102336.25;2046622;28;20579;-84
2022/08/11 03:04:00;;;;;;;7.85;4.38;;;;;;;15.47;96.69;102348.97;2047412;28;27739;-84
2022/08/11 03:05:40;;;;;;;5.00;4.53;;;;;;;15.39;96.83;102340.13;2038541;29;30519;-84
2022/08/11 03:08:37;;;;;;;8.18;4.65;;;;;;;15.31;96.98;102350.19;2047856;28;19950;-76
2022/08/11 03:10:03;;;;;;;8.45;5.20;;;;;;;15.38;98.19;102349.13;2046291;28;35036;-76
2022/08/11 03:16:47;;;;;;;9.05;4.40;;;;;;;15.31;97.15;102343.00;2047347;28;41871;-76
2022/08/11 03:18:31;;;;;;;8.43;5.10;;;;;;;15.32;97.14;102346.56;2039377;29;29212;-76
2022/08/11 03:19:41;;;;;;;6.75;5.03;;;;;;;15.27;97.12;102344.88;2031300;29;28918;-76
2022/08/11 03:21:20;;;;;;;9.57;4.85;;;;;;;15.31;97.27;102344.78;2040527;28;34000;-76
2022/08/11 03:22:37;;;;;;;9.00;5.70;;;;;;;15.32;97.45;102341.19;2045171;28;32066;-76
2022/08/11 03:24:05;;;;;;;6.93;5.55;;;;;;;15.29;97.23;102342.16;2037074;29;20159;-76
2022/08/11 03:25:38;;;;;;;6.60;4.57;;;;;;;15.26;96.65;102345.78;2049007;28;21145;-76
2022/08/11 03:26:59;;;;;;;6.85;4.95;;;;;;;15.26;97.04;102342.19;2041338;28;20123;-76
2022/08/11 03:28:27;;;;;;;;;;;;;;;15.31;96.83;102339.38;2048954;28;20036;-76
2022/08/11 03:29:46;;;;;;;10.00;4.90;;;;;;;15.32;96.93;102346.56;2048876;28;19926;-76
2022/08/11 03:31:06;;;;;;;12.32;4.75;;;;;;;15.30;97.08;102343.91;2049084;28;20079;-76
2022/08/11 03:34:27;;;;;;;7.55;5.18;;;;;;;15.23;96.58;102337.72;2047755;28;20833;-76
2022/08/11 03:35:37;;;;;;;11.10;4.65;;;;;;;15.21;96.55;102347.66;2039278;29;32988;-76
2022/08/11 03:37:06;;;;;;;8.25;4.70;;;;;;;15.22;96.81;102345.88;2033815;29;20128;-76
2022/08/11 03:38:26;;;;;;;5.70;4.72;;;;;;;15.17;96.89;102337.88;2038733;29;20044;-76
2022/08/11 03:39:58;;;;;;;10.02;5.00;;;;;;;15.15;96.87;102349.63;2039368;28;20871;-77
2022/08/11 03:41:43;;;;;;;8.00;4.88;;;;;;;15.14;97.15;102346.00;2045617;28;20079;-76
2022/08/11 03:43:25;;;;;;;6.35;5.28;;;;;;;15.08;96.62;102348.84;2039831;29;30927;-76
2022/08/11 03:44:47;;;;;;;10.15;5.30;;;;;;;15.11;97.02;102347.88;2047923;28;31538;-76
2022/08/11 03:46:09;;;;;;;7.13;5.30;;;;;;;15.11;97.02;102351.50;2039356;29;35922;-76
2022/08/11 03:47:26;;;;;;;5.65;5.15;;;;;;;15.09;96.58;102347.91;2049104;28;20043;-76
2022/08/11 03:49:27;;;;;;;7.13;4.18;;;;;;;15.03;96.64;102350.72;2054042;28;31250;-75
2022/08/11 03:50:54;;;;;;;9.18;5.28;;;;;;;14.94;96.91;102346.41;2039587;29;20092;-75
2022/08/11 03:52:29;;;;;;;10.10;4.90;;;;;;;14.89;97.03;102349.19;2048382;28;25759;-75
2022/08/11 03:54:10;;;;;;;6.95;4.90;;;;;;;14.86;97.30;102349.25;2048148;28;20106;-76
2022/08/11 03:55:42;;;;;;;6.32;5.30;;;;;;;14.86;97.55;102341.16;2055436;28;31732;-76
2022/08/11 03:57:17;;;;;;;9.20;5.50;;;;;;;14.83;97.57;102349.28;2051903;28;29157;-76
2022/08/11 03:58:34;;;;;;;9.68;5.00;;;;;;;14.82;98.03;102350.22;2048231;28;35500;-75
2022/08/11 04:00:08;;;;;;;6.57;4.65;;;;;;;14.79;97.52;102360.19;2048680;28;20095;-76
2022/08/11 04:02:03;;;;;;;5.50;4.32;;;;;;;14.77;97.92;102353.88;2048817;28;20893;-75
2022/08/11 04:03:31;;;;;;;7.57;5.60;;;;;;;14.75;98.18;102351.25;2047084;28;30931;-76
2022/08/11 04:04:56;;;;;;;7.95;5.70;;;;;;;14.87;98.81;102355.50;2048791;28;20182;-76
2022/08/11 04:06:30;;;;;;;10.00;5.53;;;;;;;14.83;97.97;102351.09;2047234;28;26563;-77
2022/08/11 04:08:17;;;;;;;7.82;5.22;;;;;;;14.84;97.52;102351.09;2048590;28;20044;-76
2022/08/11 04:09:53;;;;;;;7.15;5.38;;;;;;;14.93;97.80;102349.13;2047939;28;32984;-76
2022/08/11 04:11:28;;;;;;;9.18;5.28;;;;;;;14.90;97.09;102358.16;2048375;28;30500;-76
2022/08/11 04:12:57;;;;;;;6.18;5.22;;;;;;;14.95;97.38;102355.38;2047831;28;36473;-76
2022/08/11 04:16:40;;;;;;;8.30;5.63;;;;;;;14.99;96.70;102357.13;2048456;28;25570;-76
2022/08/11 04:18:39;;;;;;;7.03;5.05;;;;;;;15.00;96.54;102350.78;2048227;28;27397;-77
2022/08/11 04:20:12;;;;;;;7.85;5.20;;;;;;;15.07;96.85;102349.75;2047699;28;25643;-76
2022/08/11 04:22:03;;;;;;;7.82;6.03;;;;;;;15.08;95.96;102341.63;2048728;28;20964;-76
2022/08/11 04:23:45;;;;;;;9.75;5.72;;;;;;;15.09;95.55;102345.19;2048385;28;30135;-76
2022/08/11 04:25:21;;;;;;;6.65;4.72;;;;;;;15.10;95.59;102347.00;2048149;28;20048;-75
2022/08/11 04:27:19;;;;;;;6.72;5.13;;;;;;;15.13;95.61;102344.25;2048390;28;27646;-76
2022/08/11 04:29:04;;;;;;;6.80;5.30;;;;;;;15.18;95.21;102341.44;2048197;28;35159;-75
2022/08/11 04:30:34;;;;;;;8.23;5.60;;;;;;;15.24;94.96;102347.63;2047750;28;33910;-76
2022/08/11 04:31:55;;;;;;;8.10;4.80;;;;;;;15.44;94.90;102344.50;2048587;28;20884;-76
2022/08/11 04:33:36;;;;;;;8.90;4.75;;;;;;;15.96;93.67;102344.34;2048036;28;30618;-76
2022/08/11 04:35:06;;;;;;;5.03;4.53;;;;;;;16.58;90.85;102335.59;2047847;28;33419;-76
2022/08/11 04:38:49;;;;;;;6.03;4.35;;;;;;;17.95;81.76;102333.63;2048299;28;26166;-76
2022/08/11 04:40:42;;;;;;;6.95;3.45;;;;;;;18.72;78.07;102331.94;2047690;28;26935;-76
2022/08/11 04:44:27;;;;;;;5.88;2.42;;;;;;;19.96;72.51;102331.91;2047951;28;27146;-75
2022/08/11 04:46:09;;;;;;;6.60;2.78;;;;;;;20.57;69.49;102333.03;2048112;28;27808;-75
2022/08/11 05:01:42;;;;;;;;;;;;;;;23.41;56.36;102329.28;2048550;28;20102;-76
2022/08/11 05:03:14;;;;;;;4.03;1.90;;;;;;;24.14;54.66;102330.72;2048206;28;39091;-76
2022/08/11 05:06:52;;;;;;;6.57;2.53;;;;;;;24.64;52.61;102315.00;2047801;28;20117;-79
2022/08/11 05:08:41;;;;;;;5.22;2.42;;;;;;;24.69;52.31;102323.81;2054407;28;31944;-78
2022/08/11 05:10:08;;;;;;;5.72;2.40;;;;;;;25.42;51.27;102320.25;2047127;28;30254;-80
2022/08/11 05:11:56;;;;;;;5.00;2.33;;;;;;;25.87;49.96;102327.34;2046432;28;21049;-85
2022/08/11 05:34:52;;;;;;;3.78;1.90;;;;;;;27.57;42.16;102321.22;2030817;29;26029;-76
2022/08/11 05:36:11;;;;;;;5.20;1.98;;;;;;;28.08;42.49;102321.09;2031337;29;32056;-73
2022/08/11 05:37:28;;;;;;;4.97;2.15;;;;;;;28.06;41.40;102320.34;2029724;29;38161;-76
2022/08/11 05:57:24;;;;;;;6.45;2.10;;;;;;;28.62;40.80;102321.66;2027819;29;36636;-75
2022/08/11 05:58:52;;;;;;;7.78;1.90;;;;;;;28.94;38.58;102311.72;2022955;29;20905;-76
2022/08/11 06:00:09;;;;;;;6.45;1.77;;;;;;;29.45;37.55;102312.28;2038986;28;20055;-75
2022/08/11 06:01:19;;;;;;;6.28;1.70;;;;;;;29.35;37.27;102314.94;2046646;28;32541;-77
2022/08/11 06:02:24;;;;;;;4.93;1.70;;;;;;;29.60;36.72;102322.09;2043746;28;32125;-75
2022/08/11 06:03:31;;;;;;;6.50;1.90;;;;;;;29.06;39.03;102317.25;2042039;28;20761;-75
2022/08/11 06:04:39;;;;;;;5.55;1.65;;;;;;;29.84;35.91;102318.31;2038631;29;30540;-76
2022/08/11 06:05:41;;;;;;;5.70;1.95;;;;;;;29.62;36.42;102320.06;2048827;28;25446;-74
2022/08/11 06:07:05;;;;;;;5.10;1.48;;;;;;;29.92;35.50;102326.88;2054557;28;26891;-74
2022/08/11 06:08:08;;;;;;;4.75;1.58;;;;;;;30.10;36.06;102326.34;2043458;28;20484;-73
2022/08/11 06:09:13;;;;;;;3.47;1.35;;;;;;;30.39;34.90;102319.22;2047426;28;20035;-74
2022/08/11 06:10:32;;;;;;;5.82;1.50;;;;;;;31.10;34.07;102317.72;2047064;28;28834;-75
2022/08/11 06:11:42;;;;;;;8.07;1.92;;;;;;;29.77;35.42;102330.88;2048731;28;20044;-73
2022/08/11 06:12:54;;;;;;;2.65;1.50;;;;;;;29.92;35.47;102320.47;2054333;28;39939;-74
2022/08/11 06:14:01;;;;;;;5.10;1.40;;;;;;;30.48;34.09;102320.31;2054552;28;27255;-75
2022/08/11 06:15:10;;;;;;;4.47;1.60;;;;;;;29.90;35.84;102323.34;2042556;28;37974;-74
2022/08/11 06:16:27;;;;;;;5.40;1.50;;;;;;;30.91;33.50;102315.69;2040135;28;20060;-74
2022/08/11 06:17:31;;;;;;;2.78;1.10;;;;;;;31.04;33.17;102318.28;2049152;28;31718;-74
2022/08/11 06:18:46;;;;;;;4.85;1.40;;;;;;;31.23;32.87;102323.94;2052592;28;26109;-74
2022/08/11 06:19:51;;;;;;;4.40;1.52;;;;;;;31.33;32.76;102321.22;2047491;28;25598;-74
2022/08/11 06:20:56;;;;;;;4.07;1.20;;;;;;;30.89;32.88;102320.50;2053953;28;39753;-74
2022/08/11 06:22:01;;;;;;;3.17;1.30;;;;;;;31.51;32.91;102321.47;2054228;28;20862;-74
2022/08/11 06:23:08;;;;;;;3.00;1.10;;;;;;;31.83;32.69;102312.97;2054927;28;20085;-73
2022/08/11 06:24:13;;;;;;;2.05;1.00;;;;;;;31.74;32.34;102314.69;2046656;28;26894;-74
2022/08/11 06:25:16;;;;;;;3.55;1.30;;;;;;;32.09;31.90;102312.50;2048159;28;20036;-73
2022/08/11 06:26:19;;;;;;;2.22;1.20;;;;;;;32.03;31.66;102310.25;2046350;28;21081;-73
2022/08/11 06:27:22;;;;;;;3.45;1.08;;;;;;;32.00;32.23;102310.53;2047073;28;28220;-74
2022/08/11 06:28:34;;;;;;;3.92;1.45;;;;;;;32.23;31.04;102312.09;2046596;28;33686;-74
2022/08/11 06:29:44;;;;;;;1.95;1.35;;;;;;;30.60;34.00;102319.25;2047546;28;28704;-74
2022/08/11 06:30:49;;;;;;;2.38;1.20;;;;;;;32.04;30.91;102314.81;2055276;28;20031;-74
2022/08/11 06:32:01;;;;;;;4.80;1.10;;;;;;;32.13;30.04;102312.06;2038373;29;29035;-74
2022/08/11 06:33:06;;;;;;;1.95;0.93;;;;;;;32.37;30.78;102313.53;2040017;28;32329;-74
2022/08/11 06:34:23;;;;;;;2.95;1.08;;;;;;;32.98;29.22;102304.00;2047327;28;20997;-74
2022/08/11 06:36:09;;;;;;;3.40;1.30;;;;;;;31.94;31.13;102312.88;2054471;28;31625;-73
2022/08/11 06:37:45;;;;;;;4.90;0.90;;;;;;;32.81;29.41;102311.22;2047846;28;22743;-74
2022/08/11 06:39:26;;;;;;;1.92;1.10;;;;;;;32.56;29.27;102309.91;2046400;28;20052;-74
2022/08/11 06:42:58;;;;;;;1.77;1.02;;;;;;;32.13;29.61;102314.81;2054442;28;24538;-74
2022/08/11 06:44:11;;;;;;;3.00;0.90;;;;;;;31.79;30.88;102314.28;2047718;28;22418;-74
2022/08/11 06:45:54;;;;;;;3.60;0.85;;;;;;;32.53;29.19;102311.03;2054289;28;31075;-74
2022/08/11 06:47:06;;;;;;;3.78;1.20;;;;;;;33.00;28.79;102304.75;2046601;28;26347;-74
2022/08/11 06:48:17;;;;;;;3.08;1.10;;;;;;;33.50;28.65;102305.50;2052286;28;29234;-74
2022/08/11 06:51:13;;;;;;;4.45;1.10;;;;;;;32.93;29.83;102303.59;2048348;28;24265;-74
2022/08/11 06:52:17;;;;;;;3.17;1.00;;;;;;;33.96;28.23;102314.78;2046710;28;36905;-74
2022/08/11 06:53:58;;;;;;;5.85;1.00;;;;;;;34.22;27.58;102313.03;2048927;28;20881;-74
2022/08/11 07:01:45;;;;;;;6.18;0.73;;;;;;;35.77;24.65;102307.91;2048279;28;28061;-74
2022/08/11 07:03:11;;;;;;;2.95;0.90;;;;;;;35.82;25.26;102313.84;2047997;28;30636;-74
2022/08/11 07:04:26;;;;;;;5.72;1.20;;;;;;;35.71;25.68;102317.81;2048545;28;29914;-74
2022/08/11 07:06:27;;;;;;;3.33;1.08;;;;;;;35.78;24.93;102306.88;2049384;28;22043;-74
2022/08/11 07:16:19;;;;;;;3.15;0.80;;;;;;;36.35;24.98;102309.81;2047414;28;23146;-74
2022/08/11 07:17:26;;;;;;;4.25;0.70;;;;;;;37.30;24.01;102302.81;2051871;28;40143;-74
2022/08/11 07:28:55;;;;;;;3.15;1.20;;;;;;;37.59;22.97;102304.97;2047873;28;20055;-74
2022/08/11 07:29:59;;;;;;;3.73;1.00;;;;;;;37.50;23.54;102303.25;2052107;28;26988;-74
2022/08/11 07:31:12;;;;;;;2.30;0.80;;;;;;;38.20;22.77;102302.41;2047692;28;36244;-74
2022/08/11 07:32:24;;;;;;;3.78;1.10;;;;;;;37.60;22.93;102306.72;2050582;28;20051;-74
2022/08/11 07:33:41;;;;;;;4.40;0.70;;;;;;;37.08;24.13;102308.06;2048459;28;20118;-73
2022/08/11 07:35:19;;;;;;;4.15;1.00;;;;;;;37.79;22.80;102305.41;2048387;28;21128;-74
2022/08/11 07:36:24;;;;;;;4.03;1.35;;;;;;;37.43;23.91;102303.09;2048357;28;20935;-74
2022/08/11 07:37:33;;;;;;;3.05;0.80;;;;;;;36.37;24.78;102304.06;2047575;28;33614;-74
2022/08/11 07:38:44;;;;;;;3.65;1.15;;;;;;;37.71;22.96;102305.47;2048626;28;22050;-73
2022/08/11 07:39:49;;;;;;;1.35;0.70;;;;;;;37.56;22.72;102295.03;2047441;28;22699;-74
2022/08/11 07:40:51;;;;;;;1.45;0.80;;;;;;;37.83;22.75;102304.00;2040709;28;32967;-74
2022/08/11 07:41:57;;;;;;;3.08;0.88;;;;;;;38.31;22.54;102296.38;2047649;28;23886;-74
2022/08/11 07:42:59;;;;;;;4.63;1.10;;;;;;;38.68;22.20;102300.31;2048206;28;20191;-74
2022/08/11 07:44:08;;;;;;;3.05;0.70;;;;;;;38.81;21.52;102312.78;2040151;28;31196;-75
2022/08/11 07:52:32;;;;;;;2.13;0.93;;;;;;;39.54;21.20;102304.66;2040433;28;25914;-74
2022/08/11 07:53:39;;;;;;;4.90;0.90;;;;;;;39.69;21.25;102297.13;2039603;29;36988;-75
2022/08/11 07:54:43;;;;;;;4.95;0.90;;;;;;;39.53;21.14;102302.94;2044106;28;20816;-74
2022/08/11 07:55:49;;;;;;;3.53;1.05;;;;;;;39.63;21.04;102306.31;2047759;28;24237;-74
2022/08/11 07:56:53;;;;;;;4.28;0.70;;;;;;;38.18;23.05;102310.13;2039515;29;26205;-75
2022/08/11 08:19:13;;;;;;;4.38;1.00;;;;;;;38.54;21.80;102310.34;2040306;28;20048;-75
2022/08/11 08:20:24;;;;;;;1.27;0.70;;;;;;;39.24;20.71;102301.88;2039674;29;29285;-74
2022/08/11 08:21:26;;;;;;;2.50;0.85;;;;;;;40.00;20.52;102304.41;2033750;29;32731;-74
2022/08/11 08:22:29;;;;;;;3.70;0.73;;;;;;;40.01;20.65;102301.41;2039394;28;26903;-74
2022/08/11 08:23:44;;;;;;;3.13;1.23;;;;;;;40.18;20.18;102302.03;2046299;28;25360;-74
2022/08/11 08:24:47;;;;;;;4.65;1.00;;;;;;;40.28;20.16;102302.56;2039785;29;35071;-74
2022/08/11 08:25:51;;;;;;;4.43;1.25;;;;;;;40.13;20.87;102307.38;2041208;28;20061;-74
2022/08/11 08:26:59;;;;;;;3.15;1.08;;;;;;;39.66;21.19;102303.09;2047494;28;22566;-74
2022/08/11 08:28:06;;;;;;;3.42;0.80;;;;;;;39.95;20.13;102298.53;2046360;28;36249;-74
2022/08/11 08:30:47;;;;;;;3.72;0.80;;;;;;;39.91;20.35;102303.66;2039486;29;29735;-74
2022/08/11 08:31:50;;;;;;;3.80;0.85;;;;;;;39.26;20.93;102302.53;2040050;28;20797;-74
2022/08/11 08:32:56;;;;;;;8.18;0.80;;;;;;;39.76;21.01;102308.44;2039291;29;28277;-74
2022/08/11 08:33:58;;;;;;;5.35;0.90;;;;;;;39.55;20.92;102307.28;2039405;29;20631;-74
2022/08/11 08:35:02;;;;;;;3.85;0.90;;;;;;;39.49;21.28;102303.31;2039478;29;32061;-74
2022/08/11 08:36:11;;;;;;;3.63;0.88;;;;;;;39.54;20.73;102307.47;2039290;28;34491;-74
2022/08/11 08:37:16;;;;;;;4.82;0.90;;;;;;;38.79;21.85;102304.56;2046924;28;32987;-74
2022/08/11 08:38:55;;;;;;;6.43;0.90;;;;;;;37.35;22.57;102309.59;2043689;28;20044;-74
2022/08/11 08:39:57;;;;;;;4.30;0.88;;;;;;;37.21;22.44;102301.97;2039385;28;43007;-74
2022/08/11 08:41:02;;;;;;;2.95;0.70;;;;;;;35.63;24.74;102307.47;2039386;29;29946;-73
2022/08/11 08:42:22;;;;;;;3.63;1.00;;;;;;;37.04;23.36;102306.66;2039804;29;20131;-74
2022/08/11 08:43:24;;;;;;;3.05;0.70;;;;;;;37.63;22.84;102300.78;2039803;29;23480;-74
2022/08/11 08:44:27;;;;;;;5.10;1.05;;;;;;;37.23;23.23;102306.31;2040485;28;28313;-74
2022/08/11 08:45:41;;;;;;;3.55;0.70;;;;;;;37.78;22.13;102298.97;2048070;28;20056;-73
2022/08/11 08:46:48;;;;;;;2.65;0.82;;;;;;;36.93;23.59;102302.31;2053440;28;25150;-74
2022/08/11 08:48:05;;;;;;;2.72;0.80;;;;;;;37.77;22.10;102294.41;2047400;28;26320;-73
2022/08/11 08:49:10;;;;;;;2.17;0.60;;;;;;;37.78;22.32;102301.75;2047168;28;37484;-74